Time;durP1;ratioP1;P1;durP2;ratioP2;P2;SDS_P1;SDS_P2;PMS_P1;PMS_P2;Temp;Humidity;BMP_temperature;BMP_pressure;BME280_temperature;BME280_humidity;BME280_pressure;Samples;Min_cycle;Max_cycle;Signal;HPM_P1;HPM_P2
2022/03/15 00:02:20;;;;;;;33.50;16.27;;;;;;;9.07;70.21;102739.16;6247341;22;20027;-63
2022/03/15 00:04:45;;;;;;;29.40;16.30;;;;;;;9.08;69.93;102741.00;6246659;22;20004;-63
2022/03/15 00:07:13;;;;;;;25.17;15.60;;;;;;;9.09;69.53;102741.88;6246130;22;20087;-62
2022/03/15 00:09:39;;;;;;;27.25;15.68;;;;;;;9.02;70.08;102741.59;6244343;23;20031;-63
2022/03/15 00:12:05;;;;;;;29.63;16.50;;;;;;;9.06;70.67;102733.81;6245919;22;20000;-63
2022/03/15 00:14:30;;;;;;;27.25;15.00;;;;;;;9.13;69.99;102731.56;6246286;22;20329;-63
2022/03/15 00:16:57;;;;;;;30.90;16.15;;;;;;;9.21;69.94;102734.56;6246007;22;20008;-63
2022/03/15 00:19:23;;;;;;;26.55;16.33;;;;;;;9.23;69.76;102725.88;6246184;22;20004;-63
2022/03/15 00:21:49;;;;;;;27.20;15.27;;;;;;;9.27;68.96;102729.56;6245885;22;20000;-63
2022/03/15 00:24:15;;;;;;;27.30;15.70;;;;;;;9.30;69.26;102721.78;6246090;22;20307;-63
2022/03/15 00:26:40;;;;;;;23.05;15.63;;;;;;;9.34;68.69;102721.09;6245699;22;20004;-63
2022/03/15 00:29:06;;;;;;;25.23;15.82;;;;;;;9.26;68.92;102719.84;6247942;22;20000;-63
2022/03/15 00:31:31;;;;;;;19.58;15.02;;;;;;;9.25;69.12;102716.31;6246912;22;20008;-63
2022/03/15 00:33:57;;;;;;;29.50;15.52;;;;;;;9.27;69.07;102714.63;6246079;23;20043;-63
2022/03/15 00:36:25;;;;;;;25.13;14.88;;;;;;;9.32;68.54;102727.13;6245815;22;20083;-63
2022/03/15 00:38:51;;;;;;;22.13;15.05;;;;;;;9.26;68.46;102727.75;6246114;22;20004;-63
2022/03/15 00:41:17;;;;;;;24.15;14.52;;;;;;;9.22;68.25;102739.91;6245673;23;20421;-63
2022/03/15 00:43:42;;;;;;;23.60;14.93;;;;;;;9.20;68.02;102733.63;6244143;23;20008;-64
2022/03/15 00:46:08;;;;;;;24.60;14.27;;;;;;;9.16;68.69;102741.31;6247012;22;20012;-63
2022/03/15 00:48:34;;;;;;;25.00;14.73;;;;;;;9.17;69.02;102740.53;6248130;22;20011;-62
2022/03/15 00:50:59;;;;;;;25.05;15.75;;;;;;;9.13;68.33;102735.94;6247838;22;20012;-63
2022/03/15 00:53:24;;;;;;;34.63;21.30;;;;;;;9.10;68.89;102722.59;6247548;23;20012;-63
2022/03/15 00:55:50;;;;;;;29.75;16.60;;;;;;;9.15;69.14;102729.88;6247788;22;20330;-64
2022/03/15 00:58:15;;;;;;;26.17;15.52;;;;;;;9.10;69.27;102731.41;6247792;22;20034;-63
2022/03/15 01:00:44;;;;;;;27.15;16.10;;;;;;;9.11;69.62;102719.13;6247400;23;20046;-63
2022/03/15 01:03:10;;;;;;;29.27;16.35;;;;;;;9.07;69.57;102718.06;6247717;22;20008;-62
2022/03/15 01:05:35;;;;;;;26.27;16.38;;;;;;;9.06;69.42;102718.00;6247788;23;20046;-62
2022/03/15 01:08:01;;;;;;;27.85;16.20;;;;;;;9.06;69.65;102716.25;6247670;22;20329;-63
2022/03/15 01:10:26;;;;;;;36.40;16.77;;;;;;;9.01;69.23;102723.97;6247601;22;20008;-63
2022/03/15 01:12:52;;;;;;;25.25;16.20;;;;;;;8.90;69.00;102711.09;6247629;23;20000;-63
2022/03/15 01:15:18;;;;;;;27.08;16.33;;;;;;;8.83;69.04;102709.00;6247911;22;20000;-63
2022/03/15 01:17:43;;;;;;;31.35;18.73;;;;;;;8.83;69.19;102725.72;6247554;22;20059;-63
2022/03/15 01:20:09;;;;;;;25.50;15.02;;;;;;;8.80;69.17;102724.69;6247589;23;20410;-63
2022/03/15 01:22:35;;;;;;;27.38;16.10;;;;;;;8.69;70.18;102718.88;6247601;22;20004;-63
2022/03/15 01:25:00;;;;;;;23.88;15.10;;;;;;;8.64;70.62;102709.84;6247482;22;20054;-62
2022/03/15 01:27:26;;;;;;;24.92;14.15;;;;;;;8.61;70.77;102704.41;6247373;23;20008;-62
2022/03/15 01:29:51;;;;;;;30.33;18.38;;;;;;;8.65;71.04;102714.28;6247584;22;20004;-62
2022/03/15 01:32:20;;;;;;;25.23;14.27;;;;;;;8.71;70.49;102712.84;6247276;22;20004;-62
2022/03/15 01:34:45;;;;;;;26.65;14.82;;;;;;;8.75;69.63;102704.28;6247455;22;20299;-63
2022/03/15 01:37:11;;;;;;;23.23;13.88;;;;;;;8.73;69.85;102692.72;6247419;23;20007;-63
2022/03/15 01:39:37;;;;;;;23.05;13.93;;;;;;;8.76;70.20;102692.00;6247354;22;20080;-63
2022/03/15 01:42:03;;;;;;;32.72;17.80;;;;;;;8.66;69.77;102695.03;6247662;22;20000;-62
2022/03/15 01:44:32;;;;;;;22.48;14.55;;;;;;;8.68;69.96;102691.63;6247674;22;20010;-62
2022/03/15 01:46:59;;;;;;;25.60;14.18;;;;;;;8.71;70.16;102694.41;6246871;22;20076;-62
2022/03/15 01:49:25;;;;;;;22.85;13.23;;;;;;;8.77;70.14;102688.50;6247367;22;20004;-62
2022/03/15 01:51:50;;;;;;;20.38;13.43;;;;;;;8.81;69.59;102690.47;6247302;22;20004;-63
2022/03/15 01:54:17;;;;;;;23.85;14.73;;;;;;;8.84;69.50;102688.00;6246893;22;20012;-63
2022/03/15 01:56:43;;;;;;;32.05;18.63;;;;;;;8.80;69.13;102682.50;6247012;22;20004;-63
2022/03/15 01:59:10;;;;;;;23.52;13.68;;;;;;;8.77;69.08;102678.88;6247243;22;20321;-63
2022/03/15 02:01:37;;;;;;;24.27;13.48;;;;;;;8.78;68.73;102679.81;6246881;22;20001;-63
2022/03/15 02:04:03;;;;;;;28.17;16.60;;;;;;;8.70;69.31;102674.16;6247236;22;20376;-63
2022/03/15 02:06:28;;;;;;;25.55;15.65;;;;;;;8.68;69.47;102678.44;6247077;22;19999;-62
2022/03/15 02:08:54;;;;;;;22.35;13.50;;;;;;;8.63;69.38;102674.69;6247486;22;20004;-63
2022/03/15 02:11:19;;;;;;;22.65;12.23;;;;;;;8.62;69.42;102674.63;6247153;22;20001;-63
2022/03/15 02:13:45;;;;;;;23.08;13.27;;;;;;;8.65;69.28;102683.59;6247109;23;20452;-63
2022/03/15 02:16:10;;;;;;;23.13;13.98;;;;;;;8.64;69.09;102681.75;6246781;22;20083;-63
2022/03/15 02:18:36;;;;;;;19.80;12.02;;;;;;;8.69;69.06;102680.28;6245390;23;20330;-63
2022/03/15 02:21:02;;;;;;;18.27;12.85;;;;;;;8.70;69.48;102671.53;6246934;22;20083;-63
2022/03/15 02:23:28;;;;;;;22.40;14.20;;;;;;;8.74;68.83;102667.31;6245202;23;20014;-63
2022/03/15 02:25:53;;;;;;;28.77;14.27;;;;;;;8.71;69.30;102664.53;6246913;22;20008;-63
2022/03/15 02:28:18;;;;;;;20.83;12.73;;;;;;;8.69;69.82;102656.56;6246884;22;20004;-63
2022/03/15 02:30:44;;;;;;;18.92;11.82;;;;;;;8.73;69.02;102653.19;6246866;22;20008;-63
2022/03/15 02:33:10;;;;;;;21.50;12.02;;;;;;;8.72;69.48;102654.03;6246694;23;20046;-63
2022/03/15 02:35:36;;;;;;;18.38;11.32;;;;;;;8.76;68.84;102648.09;6246806;22;20005;-63
2022/03/15 02:38:01;;;;;;;19.60;11.23;;;;;;;8.76;68.67;102636.63;6246783;22;20004;-64
2022/03/15 02:40:27;;;;;;;19.98;11.30;;;;;;;8.81;69.05;102639.50;6246803;23;20050;-62
2022/03/15 02:42:52;;;;;;;19.10;12.07;;;;;;;8.80;68.78;102640.31;6246846;22;20078;-62
2022/03/15 02:45:18;;;;;;;23.30;12.32;;;;;;;8.74;69.00;102647.13;6246777;23;20075;-62
2022/03/15 02:47:45;;;;;;;20.67;12.00;;;;;;;8.78;68.74;102646.44;6244748;23;20404;-62
2022/03/15 02:50:11;;;;;;;20.55;12.68;;;;;;;8.70;68.90;102645.19;6247020;22;20081;-63
2022/03/15 02:52:37;;;;;;;19.65;11.20;;;;;;;8.64;68.84;102642.22;6246518;22;20001;-62
2022/03/15 02:55:03;;;;;;;27.80;14.68;;;;;;;8.70;69.46;102641.63;6246446;22;20015;-63
2022/03/15 02:57:29;;;;;;;26.85;12.82;;;;;;;8.74;68.73;102628.66;6246740;22;20317;-62
2022/03/15 02:59:58;;;;;;;20.55;10.65;;;;;;;8.80;68.53;102628.03;6246627;22;20004;-62
2022/03/15 03:02:23;;;;;;;20.38;11.85;;;;;;;8.80;68.28;102628.03;6246422;23;20080;-63
2022/03/15 03:04:51;;;;;;;19.23;11.18;;;;;;;8.77;68.56;102625.25;6244951;23;20079;-62
2022/03/15 03:07:18;;;;;;;17.77;10.70;;;;;;;8.75;68.50;102616.41;6246390;22;20008;-62
2022/03/15 03:09:44;;;;;;;21.90;11.18;;;;;;;8.76;68.06;102615.56;6246495;22;20000;-63
2022/03/15 03:12:11;;;;;;;19.40;11.57;;;;;;;8.77;68.49;102607.72;6247095;23;20057;-62
2022/03/15 03:14:37;;;;;;;20.30;10.88;;;;;;;8.74;68.32;102611.97;6248115;22;20026;-62
2022/03/15 03:17:02;;;;;;;18.10;10.50;;;;;;;8.69;68.42;102602.91;6245177;23;20008;-63
2022/03/15 03:19:28;;;;;;;21.73;11.55;;;;;;;8.67;68.33;102601.94;6246376;22;20058;-62
2022/03/15 03:21:53;;;;;;;19.83;10.80;;;;;;;8.67;68.68;102608.13;6246401;22;20373;-63
2022/03/15 03:24:23;;;;;;;20.17;10.90;;;;;;;8.65;68.54;102594.00;6246332;22;20353;-63
2022/03/15 03:26:48;;;;;;;16.75;9.90;;;;;;;8.66;68.87;102600.16;6246227;22;20421;-62
2022/03/15 03:29:15;;;;;;;17.75;10.90;;;;;;;8.68;68.01;102596.75;6246306;22;20043;-63
2022/03/15 03:31:42;;;;;;;21.83;11.05;;;;;;;8.68;68.63;102596.75;6246539;22;20034;-62
2022/03/15 03:34:09;;;;;;;17.65;10.55;;;;;;;8.68;68.43;102595.84;6246053;23;20322;-62
2022/03/15 03:36:36;;;;;;;19.25;10.73;;;;;;;8.70;68.30;102597.72;6246460;22;20008;-63
2022/03/15 03:39:07;;;;;;;22.30;10.75;;;;;;;8.71;68.21;102596.00;6246565;22;20036;-63
2022/03/15 03:41:33;;;;;;;19.38;10.10;;;;;;;8.70;68.18;102594.19;6246564;22;20000;-63
2022/03/15 03:44:04;;;;;;;22.27;10.23;;;;;;;8.68;68.33;102590.56;6246170;22;20058;-62
2022/03/15 03:46:31;;;;;;;21.45;11.68;;;;;;;8.62;68.10;102593.84;6245825;22;20491;-63
2022/03/15 03:48:57;;;;;;;20.80;11.02;;;;;;;8.59;68.51;102595.41;6246312;22;20004;-62
2022/03/15 03:51:23;;;;;;;24.95;10.23;;;;;;;8.60;69.00;102597.22;6246138;22;20010;-63
2022/03/15 03:53:48;;;;;;;16.98;10.20;;;;;;;8.58;68.76;102588.34;6245775;22;20047;-63
2022/03/15 03:56:14;;;;;;;16.75;10.23;;;;;;;8.58;68.45;102591.00;6246043;22;20008;-62
2022/03/15 03:58:39;;;;;;;22.08;10.63;;;;;;;8.60;68.10;102586.69;6245950;23;20098;-63
2022/03/15 04:01:08;;;;;;;18.55;9.40;;;;;;;8.61;68.71;102588.47;6245953;22;20030;-62
2022/03/15 04:03:33;;;;;;;21.45;10.60;;;;;;;8.59;68.90;102580.50;6245934;22;20011;-62
2022/03/15 04:06:03;;;;;;;17.48;10.38;;;;;;;8.62;68.29;102593.84;6245875;22;20008;-62
2022/03/15 04:08:29;;;;;;;18.40;10.40;;;;;;;8.61;67.89;102585.84;6246322;22;20361;-62
2022/03/15 04:10:54;;;;;;;22.73;9.85;;;;;;;8.58;68.01;102585.72;6245880;22;20087;-62
2022/03/15 04:13:20;;;;;;;18.20;10.20;;;;;;;8.58;68.04;102596.25;6246025;22;20410;-62
2022/03/15 04:15:46;;;;;;;18.73;10.18;;;;;;;8.58;68.88;102588.34;6246227;22;20020;-64
2022/03/15 04:18:13;;;;;;;18.63;9.98;;;;;;;8.58;68.44;102596.25;6245751;22;20000;-63
2022/03/15 04:20:39;;;;;;;16.83;10.13;;;;;;;8.57;68.33;102586.56;6245726;22;20011;-62
2022/03/15 04:23:04;;;;;;;19.45;10.05;;;;;;;8.58;68.16;102593.63;6245853;22;20076;-63
2022/03/15 04:25:30;;;;;;;17.20;9.75;;;;;;;8.53;68.29;102583.78;6245873;23;20367;-62
2022/03/15 04:28:00;;;;;;;17.80;10.00;;;;;;;8.55;68.54;102588.19;6245773;22;20047;-63
2022/03/15 04:30:26;;;;;;;15.30;9.90;;;;;;;8.54;68.37;102589.94;6245786;22;20423;-63
2022/03/15 04:32:51;;;;;;;17.05;10.27;;;;;;;8.49;68.64;102594.09;6245618;22;20001;-63
2022/03/15 04:35:17;;;;;;;23.73;11.90;;;;;;;8.39;68.77;102590.09;6246036;22;20007;-63
2022/03/15 04:37:42;;;;;;;24.33;10.55;;;;;;;8.36;68.63;102591.69;6245756;22;20015;-62
2022/03/15 04:40:09;;;;;;;19.80;9.73;;;;;;;8.38;68.77;102597.94;6245858;23;20418;-63
2022/03/15 04:42:35;;;;;;;18.33;10.35;;;;;;;8.32;68.61;102595.88;6245739;22;20008;-62
2022/03/15 04:45:01;;;;;;;17.90;10.45;;;;;;;8.31;68.31;102585.25;6247153;22;20011;-63
2022/03/15 04:47:26;;;;;;;20.05;10.23;;;;;;;8.33;68.40;102579.25;6246061;22;20008;-63
2022/03/15 04:49:52;;;;;;;18.42;10.32;;;;;;;8.36;68.36;102574.13;6245738;23;20023;-62
2022/03/15 04:52:18;;;;;;;27.35;10.68;;;;;;;8.27;68.88;102571.97;6245688;22;20050;-63
2022/03/15 04:54:44;;;;;;;20.55;10.90;;;;;;;8.20;69.25;102583.03;6245531;22;20488;-62
2022/03/15 04:57:10;;;;;;;21.92;10.23;;;;;;;8.17;68.81;102582.88;6245825;22;20417;-62
2022/03/15 04:59:35;;;;;;;24.42;10.60;;;;;;;8.12;69.37;102586.13;6245643;23;20007;-62
2022/03/15 05:02:01;;;;;;;18.00;10.73;;;;;;;8.09;69.12;102570.16;6245910;22;20007;-63
2022/03/15 05:04:27;;;;;;;17.20;9.43;;;;;;;8.10;69.44;102569.34;6245614;22;20035;-63
2022/03/15 05:06:52;;;;;;;18.10;9.93;;;;;;;8.14;69.07;102566.94;6245579;22;20004;-62
2022/03/15 05:09:18;;;;;;;18.40;9.32;;;;;;;8.19;69.51;102572.44;6245612;22;20074;-61
2022/03/15 05:11:46;;;;;;;20.10;9.93;;;;;;;8.18;68.73;102563.63;6245609;22;20004;-63
2022/03/15 05:14:12;;;;;;;17.98;10.50;;;;;;;8.22;68.53;102567.28;6245685;22;20303;-62
2022/03/15 05:16:38;;;;;;;22.33;10.55;;;;;;;8.25;69.17;102570.97;6245576;22;20026;-61
2022/03/15 05:19:09;;;;;;;20.73;11.20;;;;;;;8.22;68.57;102562.03;6243859;23;20014;-62
2022/03/15 05:21:35;;;;;;;17.60;9.88;;;;;;;8.23;69.12;102566.47;6245677;22;20020;-61
2022/03/15 05:24:00;;;;;;;16.90;9.45;;;;;;;8.26;69.13;102551.75;6245603;22;20004;-61
2022/03/15 05:26:26;;;;;;;19.08;10.50;;;;;;;8.29;69.37;102557.13;6245441;22;20004;-61
2022/03/15 05:28:51;;;;;;;18.63;10.18;;;;;;;8.32;68.59;102559.03;6245567;22;20004;-62
2022/03/15 05:31:22;;;;;;;19.92;9.57;;;;;;;8.29;68.54;102559.75;6246167;22;20438;-62
2022/03/15 05:33:48;;;;;;;16.83;9.52;;;;;;;8.30;68.24;102563.28;6247189;22;20134;-62
2022/03/15 05:36:14;;;;;;;17.33;9.63;;;;;;;8.26;68.83;102554.38;6247408;22;20011;-62
2022/03/15 05:38:43;;;;;;;17.98;9.85;;;;;;;8.32;68.92;102555.50;6247233;22;20008;-62
2022/03/15 05:41:08;;;;;;;15.75;9.60;;;;;;;8.31;68.70;102554.59;6247137;22;20004;-62
2022/03/15 05:43:36;;;;;;;16.33;9.32;;;;;;;8.30;68.80;102558.03;6247208;22;20337;-62
2022/03/15 05:46:02;;;;;;;15.00;9.32;;;;;;;8.30;68.32;102547.50;6247006;22;20031;-62
2022/03/15 05:48:28;;;;;;;17.30;9.02;;;;;;;8.27;68.48;102542.09;6247083;22;20338;-62
2022/03/15 05:50:54;;;;;;;17.38;9.75;;;;;;;8.29;68.48;102545.69;6247356;22;20131;-62
2022/03/15 05:53:20;;;;;;;16.30;9.68;;;;;;;8.26;67.93;102551.75;6246953;22;20012;-62
2022/03/15 05:55:45;;;;;;;17.90;10.15;;;;;;;8.26;68.85;102545.53;6247159;22;20004;-64
2022/03/15 05:58:11;;;;;;;22.30;9.43;;;;;;;8.21;68.68;102547.06;6247271;22;20004;-62
2022/03/15 06:00:37;;;;;;;17.25;9.60;;;;;;;8.17;68.71;102538.09;6247427;22;20004;-62
2022/03/15 06:03:03;;;;;;;15.65;9.23;;;;;;;8.15;68.58;102536.25;6247162;22;20481;-62
2022/03/15 06:05:28;;;;;;;16.73;9.10;;;;;;;8.13;68.09;102532.63;6246916;22;20004;-62
2022/03/15 06:07:54;;;;;;;17.15;8.77;;;;;;;8.15;68.54;102533.63;6245072;23;20073;-62
2022/03/15 06:10:21;;;;;;;16.23;9.65;;;;;;;8.14;68.49;102534.44;6246723;22;20299;-62
2022/03/15 06:12:48;;;;;;;15.65;8.82;;;;;;;8.06;68.89;102534.06;6246293;22;20011;-63
2022/03/15 06:15:14;;;;;;;18.90;9.40;;;;;;;8.03;69.54;102531.28;6247769;22;20057;-62
2022/03/15 06:18:01;;;;;;;182.23;104.35;;;;;;;8.04;69.68;102533.09;6247527;22;20095;-62
2022/03/15 06:20:28;;;;;;;35.00;19.52;;;;;;;8.09;69.37;102525.41;6247227;22;20000;-62
2022/03/15 06:22:53;;;;;;;23.58;10.57;;;;;;;8.11;69.61;102535.19;6246608;23;20058;-62
2022/03/15 06:25:19;;;;;;;22.27;9.90;;;;;;;8.15;68.72;102529.25;6248231;22;20000;-62
2022/03/15 06:27:49;;;;;;;18.13;9.60;;;;;;;8.15;68.27;102525.72;6250987;22;20008;-62
2022/03/15 06:30:18;;;;;;;17.52;8.98;;;;;;;8.15;68.68;102529.25;6247743;22;20030;-63
2022/03/15 06:32:43;;;;;;;16.65;9.77;;;;;;;8.17;68.56;102524.03;6246207;22;20303;-63
2022/03/15 06:35:10;;;;;;;17.88;9.27;;;;;;;8.19;68.53;102525.03;6246124;22;20038;-62
2022/03/15 06:37:39;;;;;;;18.42;9.20;;;;;;;8.19;68.05;102525.94;6246249;22;20079;-62
2022/03/15 06:40:06;;;;;;;17.27;9.13;;;;;;;8.21;68.15;102520.72;6245964;22;20011;-62
2022/03/15 06:42:32;;;;;;;16.85;8.63;;;;;;;8.21;67.80;102520.72;6244022;23;20004;-62
2022/03/15 06:44:57;;;;;;;17.08;9.23;;;;;;;8.21;67.94;102524.25;6245863;22;20081;-64
2022/03/15 06:47:23;;;;;;;16.92;9.20;;;;;;;8.16;68.88;102523.13;6244407;23;20004;-62
2022/03/15 06:49:49;;;;;;;16.60;9.27;;;;;;;8.18;68.65;102517.94;6245926;22;20066;-62
2022/03/15 06:52:14;;;;;;;18.58;9.70;;;;;;;8.08;69.20;102521.88;6246133;22;20035;-63
2022/03/15 06:54:39;;;;;;;19.20;9.15;;;;;;;8.01;68.25;102523.31;6245310;22;20012;-62
2022/03/15 06:57:05;;;;;;;17.55;9.35;;;;;;;8.00;69.28;102520.59;6245643;22;20000;-61
2022/03/15 06:59:30;;;;;;;16.15;9.15;;;;;;;7.99;69.01;102518.81;6245929;22;20363;-63
2022/03/15 07:01:56;;;;;;;19.70;10.48;;;;;;;7.89;69.17;102513.94;6245150;22;20004;-62
2022/03/15 07:04:21;;;;;;;19.50;10.02;;;;;;;7.86;69.20;102512.03;6246143;22;20000;-62
2022/03/15 07:06:47;;;;;;;19.33;9.63;;;;;;;7.87;70.12;102512.94;6245327;23;20014;-62
2022/03/15 07:09:12;;;;;;;16.38;9.63;;;;;;;7.91;69.80;102517.53;6245996;22;20385;-61
2022/03/15 07:11:38;;;;;;;15.57;9.02;;;;;;;7.92;70.16;102512.38;6245568;22;20027;-62
2022/03/15 07:14:04;;;;;;;16.15;9.25;;;;;;;7.89;70.28;102506.03;6245795;22;20079;-62
2022/03/15 07:16:30;;;;;;;18.63;9.65;;;;;;;7.84;70.81;102516.34;6245442;22;20011;-62
2022/03/15 07:18:56;;;;;;;17.92;9.80;;;;;;;7.78;71.21;102510.78;6245430;22;20004;-63
2022/03/15 07:21:22;;;;;;;18.98;8.75;;;;;;;7.80;70.60;102509.13;6245834;22;20326;-62
2022/03/15 07:23:52;;;;;;;15.27;8.27;;;;;;;7.86;70.22;102504.16;6245406;22;20000;-62
2022/03/15 07:26:17;;;;;;;15.73;8.23;;;;;;;7.93;70.56;102505.38;6245801;22;20005;-62
2022/03/15 07:28:43;;;;;;;15.20;8.90;;;;;;;7.94;70.60;102491.38;6245382;22;20062;-62
2022/03/15 07:31:08;;;;;;;15.20;8.45;;;;;;;8.00;70.71;102489.00;6245710;22;20326;-62
2022/03/15 07:33:34;;;;;;;13.50;8.20;;;;;;;8.04;70.57;102491.88;6246247;22;20377;-62
2022/03/15 07:36:00;;;;;;;13.73;7.40;;;;;;;8.11;70.27;102490.44;6245991;22;20007;-62
2022/03/15 07:38:26;;;;;;;15.90;7.45;;;;;;;8.20;70.52;102489.97;6245502;22;20058;-62
2022/03/15 07:40:52;;;;;;;14.40;7.50;;;;;;;8.26;70.11;102487.59;6245850;22;20075;-62
2022/03/15 07:43:23;;;;;;;16.73;7.45;;;;;;;8.28;69.42;102488.59;6245652;22;20427;-62
2022/03/15 07:45:49;;;;;;;14.82;7.70;;;;;;;8.26;70.20;102501.69;6243637;23;20073;-62
2022/03/15 07:48:16;;;;;;;16.20;8.30;;;;;;;8.17;69.70;102493.34;6245037;22;20484;-62
2022/03/15 07:50:41;;;;;;;14.90;7.57;;;;;;;8.09;70.63;102497.34;6245538;22;20026;-62
2022/03/15 07:53:08;;;;;;;14.60;8.20;;;;;;;8.15;70.59;102496.75;6245440;22;20008;-62
2022/03/15 07:55:34;;;;;;;14.32;7.68;;;;;;;8.18;70.20;102496.88;6244973;22;20008;-62
2022/03/15 07:58:00;;;;;;;15.55;7.88;;;;;;;8.25;69.95;102499.88;6245580;22;20011;-61
2022/03/15 08:00:26;;;;;;;14.93;7.68;;;;;;;8.19;70.11;102491.69;6243516;23;20007;-61
2022/03/15 08:02:52;;;;;;;18.17;7.50;;;;;;;8.19;69.82;102488.16;6244850;22;20024;-62
2022/03/15 08:05:23;;;;;;;17.73;7.60;;;;;;;8.19;70.88;102491.69;6245026;22;20000;-62
2022/03/15 08:07:49;;;;;;;15.38;7.53;;;;;;;8.17;69.97;102484.53;6243248;23;20008;-62
2022/03/15 08:10:15;;;;;;;15.55;7.03;;;;;;;8.18;70.25;102475.81;6245068;22;20022;-62
2022/03/15 08:12:41;;;;;;;19.15;7.60;;;;;;;8.24;69.83;102484.00;6245125;22;20335;-62
2022/03/15 08:15:08;;;;;;;16.85;7.45;;;;;;;8.28;70.23;102478.94;6245556;22;20011;-62
2022/03/15 08:17:39;;;;;;;13.80;6.88;;;;;;;8.30;70.02;102481.66;6244803;22;20054;-61
2022/03/15 08:20:07;;;;;;;17.75;7.32;;;;;;;8.34;70.10;102477.44;6245229;22;20039;-62
2022/03/15 08:22:33;;;;;;;19.15;7.40;;;;;;;8.33;69.81;102473.00;6245323;22;20004;-62
2022/03/15 08:24:59;;;;;;;18.50;7.28;;;;;;;8.34;69.54;102475.69;6245380;22;20004;-62
2022/03/15 08:27:25;;;;;;;17.38;7.70;;;;;;;8.35;69.97;102466.97;6244844;22;20000;-62
2022/03/15 08:29:51;;;;;;;12.95;6.75;;;;;;;8.41;70.12;102469.03;6245322;22;20007;-62
2022/03/15 08:32:18;;;;;;;19.05;7.18;;;;;;;8.45;70.01;102461.31;6244565;22;20004;-62
2022/03/15 08:34:43;;;;;;;15.05;7.50;;;;;;;8.50;69.79;102456.25;6245294;22;20000;-62
2022/03/15 08:37:10;;;;;;;16.08;7.30;;;;;;;8.56;69.89;102453.00;6245028;22;20008;-62
2022/03/15 08:39:35;;;;;;;16.30;7.40;;;;;;;8.61;69.44;102452.38;6245123;22;20008;-62
2022/03/15 08:42:01;;;;;;;18.33;7.32;;;;;;;8.61;69.35;102449.75;6245168;22;20360;-61
2022/03/15 08:44:27;;;;;;;20.70;7.85;;;;;;;8.67;70.17;102455.28;6245032;22;20050;-61
2022/03/15 08:46:52;;;;;;;18.02;8.02;;;;;;;8.71;70.12;102454.59;6244761;22;20004;-63
2022/03/15 08:49:19;;;;;;;17.30;7.40;;;;;;;8.79;69.49;102457.56;6245004;22;20081;-62
2022/03/15 08:51:46;;;;;;;16.02;7.03;;;;;;;8.87;69.96;102460.53;6245113;22;20083;-62
2022/03/15 08:54:12;;;;;;;13.27;6.43;;;;;;;8.88;69.83;102455.31;6244598;22;20107;-62
2022/03/15 08:56:40;;;;;;;14.15;6.57;;;;;;;8.92;68.77;102454.63;6245187;22;20008;-62
2022/03/15 08:59:07;;;;;;;20.92;9.15;;;;;;;8.90;69.24;102452.75;6244779;22;20000;-62
2022/03/15 09:01:33;;;;;;;13.35;6.60;;;;;;;8.93;69.62;102453.78;6244935;22;20004;-63
2022/03/15 09:03:59;;;;;;;19.08;8.15;;;;;;;8.86;69.43;102448.16;6244986;22;20023;-63
2022/03/15 09:06:24;;;;;;;18.10;6.80;;;;;;;8.91;69.45;102450.19;6245657;22;20156;-62
2022/03/15 09:08:50;;;;;;;10.85;6.13;;;;;;;8.95;69.47;102446.84;6247016;22;20373;-62
2022/03/15 09:11:15;;;;;;;13.40;6.22;;;;;;;9.02;68.79;102440.97;6246846;22;20000;-62
2022/03/15 09:13:42;;;;;;;13.20;6.30;;;;;;;9.07;68.84;102435.91;6247061;22;20028;-63
2022/03/15 09:16:07;;;;;;;15.80;6.18;;;;;;;9.09;68.12;102433.34;6246636;22;20317;-63
2022/03/15 09:18:33;;;;;;;12.75;5.85;;;;;;;9.09;68.36;102436.00;6247002;22;20015;-62
2022/03/15 09:20:59;;;;;;;13.90;6.50;;;;;;;9.12;68.75;102436.09;6246687;22;20336;-62
2022/03/15 09:23:24;;;;;;;12.32;6.18;;;;;;;9.18;68.09;102436.38;6247021;22;20000;-61
2022/03/15 09:25:49;;;;;;;12.35;6.20;;;;;;;9.24;68.14;102431.34;6246725;22;20449;-61
2022/03/15 09:28:16;;;;;;;11.27;6.43;;;;;;;9.26;67.54;102440.22;6246824;22;20022;-62
2022/03/15 09:30:45;;;;;;;12.07;5.88;;;;;;;9.28;67.69;102434.16;6246911;23;20028;-60
2022/03/15 09:33:11;;;;;;;15.38;5.78;;;;;;;9.36;66.74;102436.22;6246495;22;20000;-62
2022/03/15 09:35:38;;;;;;;18.38;5.68;;;;;;;9.40;66.67;102441.69;6246837;22;20012;-61
2022/03/15 09:38:03;;;;;;;14.10;5.97;;;;;;;9.40;66.85;102440.81;6246733;22;20444;-62
2022/03/15 09:40:31;;;;;;;15.52;5.95;;;;;;;9.30;66.22;102423.69;6245197;23;20087;-63
2022/03/15 09:43:00;;;;;;;17.17;5.88;;;;;;;9.37;67.56;102444.19;6246621;22;20075;-62
2022/03/15 09:45:29;;;;;;;11.18;5.85;;;;;;;9.42;66.81;102432.13;6246848;22;20026;-62
2022/03/15 09:47:58;;;;;;;17.30;5.55;;;;;;;9.45;66.82;102429.59;6246359;22;20087;-62
2022/03/15 09:50:24;;;;;;;10.57;6.10;;;;;;;9.48;67.66;102432.34;6246965;22;20038;-62
2022/03/15 09:52:53;;;;;;;16.38;5.72;;;;;;;9.57;67.57;102428.28;6246963;22;20004;-61
2022/03/15 09:55:19;;;;;;;13.88;5.60;;;;;;;9.62;66.83;102432.00;6246235;22;20405;-61
2022/03/15 09:57:44;;;;;;;11.75;5.90;;;;;;;9.55;66.33;102417.69;6246655;22;20009;-61
2022/03/15 10:00:12;;;;;;;12.15;5.47;;;;;;;9.71;66.32;102440.28;6246601;22;20037;-62
2022/03/15 10:02:40;;;;;;;12.70;6.20;;;;;;;9.82;65.99;102436.34;6246374;22;20004;-62
2022/03/15 10:05:07;;;;;;;11.27;5.53;;;;;;;9.88;66.17;102431.28;6246457;22;20014;-62
2022/03/15 10:07:32;;;;;;;24.58;5.95;;;;;;;9.96;65.99;102429.84;6246363;22;20007;-62
2022/03/15 10:10:12;;;;;;;13.13;6.00;;;;;;;10.00;65.67;102425.59;6246570;22;20418;-62
2022/03/15 10:12:38;;;;;;;10.95;6.22;;;;;;;10.04;66.55;102419.59;6246391;22;20425;-61
2022/03/15 10:15:10;;;;;;;15.55;6.47;;;;;;;10.08;67.08;102417.97;6246569;22;20000;-62
2022/03/15 10:17:44;;;;;;;14.48;5.95;;;;;;;10.16;65.54;102417.41;6246205;22;20012;-61
2022/03/15 10:20:09;;;;;;;17.85;6.20;;;;;;;10.22;65.27;102414.09;6246304;22;20079;-61
2022/03/15 10:22:35;;;;;;;10.27;5.40;;;;;;;10.31;66.34;102418.84;6246285;22;20093;-61
2022/03/15 10:25:02;;;;;;;13.18;5.70;;;;;;;10.31;65.13;102413.56;6246653;22;20004;-62
2022/03/15 10:27:33;;;;;;;15.85;5.93;;;;;;;10.30;64.96;102404.75;6244564;23;20024;-61
2022/03/15 10:29:59;;;;;;;14.50;5.53;;;;;;;10.37;64.04;102403.25;6246166;22;20007;-61
2022/03/15 10:32:27;;;;;;;14.18;5.65;;;;;;;10.45;64.02;102394.75;6246170;22;20429;-61
2022/03/15 10:35:08;;;;;;;11.98;5.68;;;;;;;10.56;64.24;102397.75;6246266;22;20071;-61
2022/03/15 10:37:35;;;;;;;17.42;5.68;;;;;;;10.62;63.77;102389.13;6246281;22;20004;-62
2022/03/15 10:40:02;;;;;;;12.88;5.60;;;;;;;10.68;63.83;102387.63;6246239;22;20032;-61
2022/03/15 10:42:28;;;;;;;12.48;5.68;;;;;;;10.69;63.07;102386.78;6246161;22;20004;-61
2022/03/15 10:44:55;;;;;;;20.17;5.50;;;;;;;10.70;63.44;102383.28;6246334;22;20079;-61
2022/03/15 10:47:21;;;;;;;12.73;5.65;;;;;;;10.72;62.89;102389.53;6245815;22;20011;-61
2022/03/15 10:49:59;;;;;;;15.80;5.70;;;;;;;10.76;63.32;102379.97;6246112;22;20054;-62
2022/03/15 10:52:34;;;;;;;16.08;5.43;;;;;;;10.69;63.14;102373.56;6246381;22;20062;-60
2022/03/15 10:55:13;;;;;;;13.90;5.93;;;;;;;10.65;62.77;102374.28;6245509;22;20034;-62
2022/03/15 10:57:52;;;;;;;13.63;5.95;;;;;;;10.59;62.84;102367.91;6245949;22;20008;-61
2022/03/15 11:00:21;;;;;;;14.18;6.40;;;;;;;10.56;62.80;102373.06;6245945;22;20055;-61
2022/03/15 11:02:49;;;;;;;14.52;6.70;;;;;;;10.44;64.24;102370.88;6245805;23;20035;-61
2022/03/15 11:05:31;;;;;;;16.30;6.47;;;;;;;10.45;64.49;102367.44;6246084;22;20004;-61
2022/03/15 11:07:57;;;;;;;18.20;6.53;;;;;;;10.40;64.14;102354.03;6243885;23;20053;-62
2022/03/15 11:10:23;;;;;;;16.52;6.53;;;;;;;10.42;64.77;102347.06;6245788;22;20004;-63
2022/03/15 11:13:11;;;;;;;14.35;6.50;;;;;;;10.48;64.22;102352.56;6245592;22;20360;-62
2022/03/15 11:15:53;;;;;;;12.10;6.38;;;;;;;10.58;64.51;102355.50;6245365;22;20008;-62
2022/03/15 11:18:19;;;;;;;11.38;6.13;;;;;;;10.66;64.17;102341.75;6245711;22;20320;-62
2022/03/15 11:20:48;;;;;;;11.55;5.97;;;;;;;10.74;63.82;102341.97;6244661;22;20014;-62